Time;durP1;ratioP1;P1;durP2;ratioP2;P2;SDS_P1;SDS_P2;PMS_P1;PMS_P2;Temp;Humidity;BMP_temperature;BMP_pressure;BME280_temperature;BME280_humidity;BME280_pressure;Samples;Min_cycle;Max_cycle;Signal;HPM_P1;HPM_P2
2023/05/20 00:00:48;;;;;;;7.83;4.73;;;13.20;50.10;;;;;;5067680;28;45972;-67
2023/05/20 00:03:14;;;;;;;8.00;4.43;;;13.20;50.00;;;;;;5069905;28;46660;-67
2023/05/20 00:05:40;;;;;;;5.93;4.10;;;13.20;50.00;;;;;;5067985;28;46576;-68
2023/05/20 00:08:08;;;;;;;5.37;4.00;;;13.20;50.00;;;;;;5063988;28;46390;-67
2023/05/20 00:10:34;;;;;;;5.90;4.43;;;13.10;50.00;;;;;;5065787;28;46310;-67
2023/05/20 00:13:00;;;;;;;8.40;4.73;;;13.10;50.00;;;;;;5068042;28;47002;-67
2023/05/20 00:15:26;;;;;;;7.60;5.10;;;13.10;50.30;;;;;;5068186;28;46526;-67
2023/05/20 00:17:52;;;;;;;7.50;4.87;;;13.10;50.60;;;;;;5069561;28;46686;-67
2023/05/20 00:20:17;;;;;;;9.77;5.33;;;13.00;50.60;;;;;;5068737;28;46603;-67
2023/05/20 00:22:43;;;;;;;6.40;5.00;;;13.00;50.70;;;;;;5071273;28;46440;-66
2023/05/20 00:25:09;;;;;;;8.47;5.00;;;13.00;50.80;;;;;;5063789;28;46415;-67
2023/05/20 00:27:35;;;;;;;8.20;5.47;;;13.00;51.10;;;;;;5068796;28;46467;-67
2023/05/20 00:30:01;;;;;;;9.23;4.90;;;13.00;50.90;;;;;;5069262;27;46611;-67
2023/05/20 00:32:26;;;;;;;7.53;4.97;;;13.10;50.90;;;;;;5069795;27;47062;-67
2023/05/20 00:34:57;;;;;;;8.87;5.40;;;13.20;50.30;;;;;;5068058;28;46409;-67
2023/05/20 00:37:22;;;;;;;5.83;4.60;;;13.20;50.00;;;;;;5068272;28;46534;-67
2023/05/20 00:39:48;;;;;;;12.53;5.90;;;13.20;50.10;;;;;;5066602;28;46535;-67
2023/05/20 00:42:25;;;;;;;7.73;5.13;;;13.20;50.20;;;;;;5067424;28;46412;-67
2023/05/20 00:44:51;;;;;;;7.03;4.90;;;13.30;50.20;;;;;;5066463;28;46394;-68
2023/05/20 00:47:18;;;;;;;8.03;5.73;;;13.40;49.80;;;;;;5068560;28;46335;-68
2023/05/20 00:49:48;;;;;;;8.87;5.07;;;13.50;49.70;;;;;;5076219;28;46239;-67
2023/05/20 00:52:14;;;;;;;8.70;5.60;;;13.50;49.40;;;;;;5068079;28;46457;-68
2023/05/20 00:54:40;;;;;;;10.60;5.00;;;13.50;49.40;;;;;;5066252;28;46515;-67
2023/05/20 00:57:07;;;;;;;10.27;5.43;;;13.50;49.60;;;;;;5066960;28;46728;-67
2023/05/20 00:59:36;;;;;;;7.00;5.50;;;13.50;49.80;;;;;;5068260;28;46421;-67
2023/05/20 01:02:03;;;;;;;9.03;5.10;;;13.50;50.00;;;;;;5068292;28;46596;-67
2023/05/20 01:04:30;;;;;;;7.17;5.17;;;13.60;49.80;;;;;;5066707;28;46408;-67
2023/05/20 01:06:56;;;;;;;7.27;5.13;;;13.60;49.70;;;;;;5071479;28;46370;-67
2023/05/20 01:09:23;;;;;;;7.00;5.13;;;13.60;50.00;;;;;;5066915;27;46543;-67
2023/05/20 01:12:05;;;;;;;9.37;5.30;;;13.60;50.20;;;;;;5070067;28;47349;-67
2023/05/20 01:14:36;;;;;;;10.70;5.03;;;13.60;50.00;;;;;;5063020;28;47376;-67
2023/05/20 01:17:08;;;;;;;7.40;5.50;;;13.60;50.00;;;;;;5065073;27;46443;-66
2023/05/20 01:19:34;;;;;;;9.00;5.40;;;13.60;50.00;;;;;;5066332;28;46432;-67
2023/05/20 01:22:05;;;;;;;7.60;5.20;;;13.60;50.30;;;;;;5069483;27;46666;-67
2023/05/20 01:24:31;;;;;;;9.40;5.90;;;13.50;50.50;;;;;;5069756;28;46731;-67
2023/05/20 01:26:57;;;;;;;11.67;5.80;;;13.50;52.10;;;;;;5063739;28;46543;-67
2023/05/20 01:29:24;;;;;;;9.53;5.70;;;13.50;51.20;;;;;;5068981;28;46665;-67
2023/05/20 01:31:52;;;;;;;9.07;5.30;;;13.40;51.50;;;;;;5065228;27;46251;-67
2023/05/20 01:34:18;;;;;;;8.20;5.57;;;13.50;51.60;;;;;;5066324;28;46468;-67
2023/05/20 01:36:45;;;;;;;7.67;5.30;;;13.50;51.50;;;;;;5067082;28;46412;-67
2023/05/20 01:39:11;;;;;;;8.00;5.50;;;13.50;51.50;;;;;;5067556;27;46063;-67
2023/05/20 01:41:38;;;;;;;9.63;5.37;;;13.50;51.70;;;;;;5068175;28;47425;-67
2023/05/20 01:44:04;;;;;;;9.43;5.70;;;13.50;51.60;;;;;;5068791;28;46691;-66
2023/05/20 01:46:33;;;;;;;9.83;5.67;;;13.50;52.00;;;;;;5066971;28;46728;-66
2023/05/20 01:48:59;;;;;;;9.77;6.07;;;13.50;53.30;;;;;;5070069;28;46730;-67
2023/05/20 01:51:25;;;;;;;9.50;5.50;;;13.50;52.10;;;;;;5065811;28;48312;-67
2023/05/20 01:53:50;;;;;;;9.00;6.30;;;13.40;52.20;;;;;;5068538;28;46408;-67
2023/05/20 01:56:16;;;;;;;7.20;5.67;;;13.50;52.30;;;;;;5068372;28;46485;-67
2023/05/20 01:58:41;;;;;;;7.37;5.70;;;13.60;52.20;;;;;;5068013;28;46432;-67
2023/05/20 02:01:07;;;;;;;9.30;5.80;;;13.50;52.20;;;;;;5064464;28;46594;-66
2023/05/20 02:03:33;;;;;;;9.50;6.30;;;13.60;52.20;;;;;;5062632;28;46383;-67
2023/05/20 02:05:58;;;;;;;8.73;5.90;;;13.60;52.10;;;;;;5064940;28;46376;-67
2023/05/20 02:08:24;;;;;;;10.13;5.83;;;13.50;52.00;;;;;;5066287;28;46472;-66
2023/05/20 02:10:49;;;;;;;14.50;6.20;;;13.50;52.00;;;;;;5065582;28;46411;-66
2023/05/20 02:13:15;;;;;;;7.80;5.57;;;13.50;52.20;;;;;;5067375;28;46411;-67
2023/05/20 02:15:41;;;;;;;9.63;5.70;;;13.50;52.20;;;;;;5067626;27;46515;-67
2023/05/20 02:18:07;;;;;;;10.63;6.00;;;13.60;52.00;;;;;;5064258;28;46640;-66
2023/05/20 02:20:35;;;;;;;10.97;6.47;;;13.50;52.00;;;;;;5065076;28;47760;-66
2023/05/20 02:23:01;;;;;;;9.40;6.17;;;13.40;52.60;;;;;;5068106;28;46483;-67
2023/05/20 02:25:27;;;;;;;7.87;6.00;;;13.40;53.10;;;;;;5067929;28;46265;-67
2023/05/20 02:27:53;;;;;;;8.70;5.77;;;13.30;53.90;;;;;;5067029;28;45878;-67
2023/05/20 02:30:18;;;;;;;7.90;5.90;;;13.20;54.50;;;;;;5062425;28;46585;-67
2023/05/20 02:32:44;;;;;;;9.20;5.77;;;13.30;54.30;;;;;;5066586;28;46686;-66
2023/05/20 02:35:10;;;;;;;11.17;6.10;;;13.20;54.60;;;;;;5066515;28;46463;-67
2023/05/20 02:37:37;;;;;;;11.50;6.10;;;13.10;54.50;;;;;;5064832;28;46212;-66
2023/05/20 02:40:03;;;;;;;8.80;6.40;;;13.10;54.50;;;;;;5066146;28;46703;-66
2023/05/20 02:42:29;;;;;;;12.30;6.37;;;13.10;54.60;;;;;;5066449;27;46600;-67
2023/05/20 02:44:57;;;;;;;11.13;6.50;;;13.10;55.40;;;;;;5066470;28;46424;-67
2023/05/20 02:47:24;;;;;;;8.13;6.13;;;13.10;55.40;;;;;;5066678;28;46547;-66
2023/05/20 02:49:49;;;;;;;11.57;7.23;;;13.10;55.40;;;;;;5066996;28;46377;-66
2023/05/20 02:52:15;;;;;;;9.07;7.00;;;13.10;54.80;;;;;;5062961;28;46473;-67
2023/05/20 02:54:40;;;;;;;10.20;6.07;;;13.20;54.60;;;;;;5063384;28;46363;-66
2023/05/20 02:57:06;;;;;;;9.60;6.30;;;13.20;54.60;;;;;;5069884;28;46327;-66
2023/05/20 02:59:31;;;;;;;8.57;6.40;;;13.20;54.60;;;;;;5063969;28;46501;-67
2023/05/20 03:01:57;;;;;;;10.10;6.47;;;13.20;54.60;;;;;;5067544;28;46466;-67
2023/05/20 03:04:24;;;;;;;13.30;6.27;;;13.20;54.60;;;;;;5065407;28;46426;-66
2023/05/20 03:06:50;;;;;;;14.67;6.87;;;13.30;54.70;;;;;;5070177;28;46393;-67
2023/05/20 03:09:18;;;;;;;9.30;6.90;;;13.30;54.70;;;;;;5064296;28;47276;-68
2023/05/20 03:11:44;;;;;;;9.87;6.60;;;13.40;54.80;;;;;;5065699;28;46383;-67
2023/05/20 03:14:09;;;;;;;11.27;6.60;;;13.40;54.80;;;;;;5065211;27;46381;-67
2023/05/20 03:16:35;;;;;;;10.40;7.17;;;13.40;54.80;;;;;;5065751;28;45960;-67
2023/05/20 03:19:01;;;;;;;11.67;7.07;;;13.30;54.70;;;;;;5065969;28;47293;-67
2023/05/20 03:21:27;;;;;;;9.80;7.00;;;13.30;54.70;;;;;;5065828;28;46381;-67
2023/05/20 03:23:52;;;;;;;12.30;7.50;;;13.30;54.70;;;;;;5066222;28;46429;-67
2023/05/20 03:26:18;;;;;;;10.50;6.97;;;13.30;54.70;;;;;;5064181;28;46428;-67
2023/05/20 03:28:43;;;;;;;11.20;8.00;;;13.20;54.60;;;;;;5063797;28;46041;-67
2023/05/20 03:31:09;;;;;;;13.23;8.37;;;13.20;55.20;;;;;;5067544;28;46485;-66
2023/05/20 03:33:34;;;;;;;15.57;8.60;;;13.10;55.70;;;;;;5067571;28;46401;-67
2023/05/20 03:36:00;;;;;;;12.20;7.93;;;13.10;56.10;;;;;;5068507;28;46333;-67
2023/05/20 03:38:26;;;;;;;14.60;8.13;;;13.00;56.40;;;;;;5070959;28;46432;-67
2023/05/20 03:40:52;;;;;;;12.17;8.53;;;13.00;57.20;;;;;;5069003;28;46487;-67
2023/05/20 03:43:17;;;;;;;12.97;7.80;;;13.00;57.50;;;;;;5068307;28;46494;-66
2023/05/20 03:45:43;;;;;;;18.03;9.23;;;13.00;58.00;;;;;;5067395;28;46338;-66
2023/05/20 03:48:08;;;;;;;16.03;9.47;;;12.90;58.60;;;;;;5071190;28;47007;-67
2023/05/20 03:50:34;;;;;;;26.17;15.10;;;13.00;58.90;;;;;;5068883;28;46417;-67
2023/05/20 03:53:00;;;;;;;25.13;14.00;;;12.90;58.80;;;;;;5069403;27;46383;-66
2023/05/20 03:55:26;;;;;;;42.93;23.93;;;12.90;59.30;;;;;;5067532;28;46417;-66
2023/05/20 03:57:52;;;;;;;29.47;15.30;;;13.00;59.30;;;;;;5069893;28;47303;-67
2023/05/20 04:00:17;;;;;;;18.20;12.80;;;13.00;58.80;;;;;;5068944;27;46363;-67
2023/05/20 04:02:43;;;;;;;18.03;10.07;;;13.10;58.60;;;;;;5068691;28;46448;-68
2023/05/20 04:05:09;;;;;;;16.10;10.03;;;13.20;58.20;;;;;;5068662;28;46439;-67
2023/05/20 04:07:35;;;;;;;15.80;10.40;;;13.20;57.80;;;;;;5068901;28;47088;-66
2023/05/20 04:10:01;;;;;;;14.87;11.10;;;13.20;58.00;;;;;;5070895;28;45861;-67
2023/05/20 04:12:29;;;;;;;14.20;9.87;;;13.10;58.60;;;;;;5069688;27;46553;-67
2023/05/20 04:14:57;;;;;;;19.20;10.67;;;13.10;58.80;;;;;;5067676;28;46515;-67
2023/05/20 04:17:22;;;;;;;16.87;10.20;;;13.00;59.30;;;;;;5066394;28;47072;-68
2023/05/20 04:19:48;;;;;;;14.57;9.37;;;13.00;59.70;;;;;;5066399;28;46306;-67
2023/05/20 04:22:14;;;;;;;17.03;10.37;;;13.00;59.90;;;;;;5068063;28;46585;-67
2023/05/20 04:24:39;;;;;;;13.90;10.17;;;13.00;59.90;;;;;;5071177;28;46377;-67
2023/05/20 04:27:05;;;;;;;17.97;10.97;;;13.00;60.00;;;;;;5067114;28;46535;-67
2023/05/20 04:29:33;;;;;;;21.53;10.80;;;13.10;60.00;;;;;;5066787;27;46364;-67
2023/05/20 04:31:59;;;;;;;13.67;10.40;;;13.10;60.00;;;;;;5066385;28;46050;-67
2023/05/20 04:34:28;;;;;;;21.47;11.63;;;13.10;59.70;;;;;;5066964;28;45920;-67
2023/05/20 04:36:54;;;;;;;18.53;10.60;;;13.20;59.60;;;;;;5069670;28;46375;-67
2023/05/20 04:39:19;;;;;;;16.93;10.83;;;13.10;60.00;;;;;;5067703;28;46425;-67
2023/05/20 04:41:47;;;;;;;15.77;11.33;;;13.10;60.30;;;;;;5066510;28;46637;-67
2023/05/20 04:44:12;;;;;;;17.00;10.80;;;13.10;60.40;;;;;;5067838;28;45877;-67
2023/05/20 04:46:38;;;;;;;20.70;11.77;;;13.10;60.50;;;;;;5066543;28;46796;-67
2023/05/20 04:49:04;;;;;;;21.10;12.13;;;13.20;60.30;;;;;;5067156;28;46420;-67
2023/05/20 04:51:30;;;;;;;21.43;13.33;;;13.10;60.50;;;;;;5067334;27;46546;-67
2023/05/20 04:53:57;;;;;;;20.03;12.67;;;13.10;61.10;;;;;;5067926;28;46558;-67
2023/05/20 04:56:23;;;;;;;20.00;13.37;;;13.10;61.50;;;;;;5071276;28;46846;-67
2023/05/20 04:58:48;;;;;;;22.97;14.50;;;13.20;60.90;;;;;;5069305;28;46498;-67
2023/05/20 05:01:14;;;;;;;37.73;18.87;;;13.30;60.50;;;;;;5067414;28;46363;-66
2023/05/20 05:03:40;;;;;;;30.37;16.93;;;13.30;60.70;;;;;;5069355;28;46433;-68
2023/05/20 05:06:05;;;;;;;27.40;14.17;;;13.20;61.10;;;;;;5067034;28;46445;-68
2023/05/20 05:08:31;;;;;;;25.57;15.03;;;13.10;61.80;;;;;;5063926;28;46416;-68
2023/05/20 05:10:56;;;;;;;31.17;16.43;;;13.00;62.70;;;;;;5071727;28;46367;-66
2023/05/20 05:13:22;;;;;;;27.77;16.97;;;13.00;62.90;;;;;;5066638;27;46519;-67
2023/05/20 05:15:47;;;;;;;31.47;16.77;;;13.10;62.90;;;;;;5070066;28;47152;-67
2023/05/20 05:18:17;;;;;;;29.77;15.97;;;13.00;63.30;;;;;;5069424;28;46363;-67
2023/05/20 05:20:42;;;;;;;27.13;17.87;;;13.00;63.50;;;;;;5068725;28;46392;-68
2023/05/20 05:23:08;;;;;;;31.73;16.50;;;13.10;63.70;;;;;;5069430;28;46392;-67
2023/05/20 05:25:33;;;;;;;29.83;15.10;;;13.10;63.70;;;;;;5067803;28;47538;-67
2023/05/20 05:27:59;;;;;;;25.23;14.30;;;13.10;63.80;;;;;;5068132;28;46429;-67
2023/05/20 05:30:25;;;;;;;29.27;15.23;;;13.00;64.70;;;;;;5067393;28;46439;-67
2023/05/20 05:32:51;;;;;;;25.83;16.40;;;13.00;65.10;;;;;;5068681;28;45932;-67
2023/05/20 05:35:16;;;;;;;30.67;15.13;;;13.00;65.60;;;;;;5068706;28;45935;-68
2023/05/20 05:37:42;;;;;;;30.07;17.40;;;13.00;65.40;;;;;;5065939;28;46385;-67
2023/05/20 05:40:08;;;;;;;32.80;17.37;;;12.80;67.00;;;;;;5067680;28;46365;-68
2023/05/20 05:42:33;;;;;;;28.67;17.17;;;12.80;67.70;;;;;;5067484;28;46550;-67
2023/05/20 05:44:59;;;;;;;29.03;15.97;;;12.80;67.70;;;;;;5065681;28;46369;-68
2023/05/20 05:47:31;;;;;;;34.03;17.47;;;12.80;67.90;;;;;;5051520;27;46292;-68
2023/05/20 05:49:56;;;;;;;30.13;15.80;;;13.00;67.60;;;;;;5064993;28;46578;-68
2023/05/20 05:52:22;;;;;;;27.43;16.57;;;13.30;66.90;;;;;;5070926;27;45879;-68
2023/05/20 05:54:48;;;;;;;26.43;15.23;;;13.50;66.90;;;;;;5068364;28;46403;-69
2023/05/20 05:57:14;;;;;;;31.90;15.93;;;13.50;65.70;;;;;;5064015;28;45765;-70
2023/05/20 05:59:39;;;;;;;32.00;16.80;;;13.60;65.40;;;;;;5069781;28;46300;-69
2023/05/20 06:02:05;;;;;;;25.03;15.40;;;13.60;65.30;;;;;;5069821;28;46486;-68
2023/05/20 06:04:31;;;;;;;22.87;15.03;;;13.70;65.00;;;;;;5068488;27;46349;-69
2023/05/20 06:06:57;;;;;;;29.00;18.27;;;13.70;64.90;;;;;;5066138;28;46226;-69
2023/05/20 06:09:22;;;;;;;26.13;15.00;;;13.80;64.80;;;;;;5066385;28;46025;-69
2023/05/20 06:11:48;;;;;;;24.50;14.40;;;13.80;64.80;;;;;;5069062;28;46393;-68
2023/05/20 06:14:13;;;;;;;25.40;14.23;;;13.80;64.70;;;;;;5069273;28;47098;-68
2023/05/20 06:16:39;;;;;;;26.77;15.73;;;13.90;64.40;;;;;;5065095;28;46560;-68
2023/05/20 06:19:04;;;;;;;23.10;15.13;;;13.90;64.30;;;;;;5065048;28;46421;-67
2023/05/20 06:21:31;;;;;;;23.67;14.90;;;13.90;64.40;;;;;;5068353;28;46660;-67
2023/05/20 06:23:57;;;;;;;23.77;15.57;;;13.90;64.40;;;;;;5066080;28;46081;-67
2023/05/20 06:26:22;;;;;;;23.40;15.30;;;14.00;63.80;;;;;;5068312;28;46653;-67
2023/05/20 06:28:48;;;;;;;23.93;15.47;;;14.10;63.80;;;;;;5064992;28;46433;-67
2023/05/20 06:31:13;;;;;;;26.20;16.40;;;14.10;63.80;;;;;;5066681;28;46394;-67
2023/05/20 06:33:39;;;;;;;25.13;17.17;;;14.20;64.00;;;;;;5065748;28;47002;-67
2023/05/20 06:36:05;;;;;;;29.50;16.73;;;14.20;63.60;;;;;;5063919;28;46379;-67
2023/05/20 06:38:31;;;;;;;26.87;15.93;;;14.20;63.60;;;;;;5065264;28;46486;-67
2023/05/20 06:40:56;;;;;;;25.00;16.43;;;14.20;63.50;;;;;;5064113;28;45839;-69
2023/05/20 06:43:22;;;;;;;23.90;15.83;;;14.20;63.70;;;;;;5064914;28;47175;-68
2023/05/20 06:45:48;;;;;;;25.87;16.47;;;14.20;63.10;;;;;;5067862;28;46100;-68
2023/05/20 06:48:13;;;;;;;25.83;16.07;;;14.30;62.80;;;;;;5066000;28;45846;-66
2023/05/20 06:50:39;;;;;;;27.10;16.70;;;14.30;62.60;;;;;;5061224;28;46459;-67
2023/05/20 06:53:04;;;;;;;25.40;17.47;;;14.30;62.60;;;;;;5066799;27;47131;-65
2023/05/20 06:55:30;;;;;;;22.13;16.13;;;14.30;62.90;;;;;;5063846;28;46344;-66
2023/05/20 06:57:55;;;;;;;26.20;16.60;;;14.30;62.80;;;;;;5063439;28;46599;-65
2023/05/20 07:00:21;;;;;;;28.97;17.40;;;14.20;63.10;;;;;;5068328;28;45830;-67
2023/05/20 07:02:47;;;;;;;26.30;16.67;;;14.20;63.10;;;;;;5066500;28;47187;-66
2023/05/20 07:05:12;;;;;;;31.33;17.63;;;14.20;63.10;;;;;;5066445;28;46437;-66
2023/05/20 07:07:38;;;;;;;23.00;15.17;;;14.50;62.60;;;;;;5065800;28;46318;-65
2023/05/20 07:10:05;;;;;;;24.70;15.60;;;14.70;61.30;;;;;;5066959;28;46484;-66
2023/05/20 07:12:31;;;;;;;27.70;15.90;;;14.70;60.90;;;;;;5065264;28;46695;-66
2023/05/20 07:14:57;;;;;;;23.40;16.20;;;14.70;61.00;;;;;;5065368;28;45917;-66
2023/05/20 07:17:23;;;;;;;25.17;15.70;;;14.70;60.90;;;;;;5064314;28;45819;-67
2023/05/20 07:19:49;;;;;;;26.37;15.50;;;14.70;61.10;;;;;;5063271;27;46571;-67
2023/05/20 07:22:14;;;;;;;22.00;14.43;;;14.80;60.40;;;;;;5064537;28;46431;-66
2023/05/20 07:24:40;;;;;;;23.53;14.53;;;15.00;60.10;;;;;;5061355;28;46345;-66
2023/05/20 07:27:06;;;;;;;21.53;13.67;;;15.00;59.50;;;;;;5064566;28;46254;-66
2023/05/20 07:29:31;;;;;;;21.43;14.00;;;15.40;58.70;;;;;;5067402;28;45856;-66
2023/05/20 07:31:57;;;;;;;19.93;14.40;;;15.70;57.00;;;;;;5067210;28;46391;-66
2023/05/20 07:34:22;;;;;;;23.07;13.77;;;16.00;57.70;;;;;;5066238;28;46290;-66
2023/05/20 07:36:48;;;;;;;20.03;13.90;;;16.10;57.10;;;;;;5066491;28;46429;-66
2023/05/20 07:39:14;;;;;;;24.37;14.13;;;16.10;55.50;;;;;;5063449;28;45826;-69
2023/05/20 07:41:40;;;;;;;21.67;14.63;;;16.10;54.70;;;;;;5059454;28;47281;-68
2023/05/20 07:44:07;;;;;;;18.87;13.93;;;16.00;54.90;;;;;;5062343;28;46613;-68
2023/05/20 07:46:33;;;;;;;27.00;14.53;;;16.10;53.90;;;;;;5063012;28;46625;-67
2023/05/20 07:48:59;;;;;;;19.33;13.23;;;16.40;52.30;;;;;;5066188;28;46510;-68
2023/05/20 07:51:26;;;;;;;25.53;15.67;;;16.30;52.40;;;;;;5063542;28;46491;-66
2023/05/20 07:53:52;;;;;;;21.40;13.53;;;15.90;52.20;;;;;;5059742;28;46565;-67
2023/05/20 07:56:17;;;;;;;18.13;12.40;;;15.80;53.30;;;;;;5061380;28;46685;-67
2023/05/20 07:58:50;;;;;;;21.23;13.70;;;16.30;52.00;;;;;;5060226;28;46370;-67
2023/05/20 08:01:16;;;;;;;19.37;12.73;;;16.50;51.00;;;;;;5059873;28;47231;-66
2023/05/20 08:03:41;;;;;;;19.30;11.93;;;16.70;49.30;;;;;;5065900;28;46507;-68
2023/05/20 08:06:07;;;;;;;19.70;12.80;;;16.90;48.90;;;;;;5064065;28;45866;-68
2023/05/20 08:08:33;;;;;;;20.83;13.03;;;17.00;48.30;;;;;;5064818;28;46398;-70
2023/05/20 08:11:00;;;;;;;19.40;13.30;;;16.90;48.50;;;;;;5064002;28;46484;-68
2023/05/20 08:13:26;;;;;;;20.70;13.17;;;16.80;49.70;;;;;;5064895;28;46484;-67
2023/05/20 08:15:53;;;;;;;19.13;12.20;;;16.50;48.60;;;;;;5064586;28;46731;-66
2023/05/20 08:18:19;;;;;;;21.57;13.10;;;16.10;49.50;;;;;;5070150;28;46515;-67
2023/05/20 08:20:45;;;;;;;18.07;11.50;;;15.80;50.10;;;;;;5069339;28;46437;-66
2023/05/20 08:23:10;;;;;;;18.83;12.17;;;15.70;50.50;;;;;;5066816;28;45915;-66
2023/05/20 08:25:37;;;;;;;17.87;11.50;;;15.90;50.40;;;;;;5070172;28;46493;-66
2023/05/20 08:28:04;;;;;;;19.33;11.83;;;16.30;49.10;;;;;;5065203;28;46572;-66
2023/05/20 08:30:30;;;;;;;15.87;11.97;;;16.60;48.00;;;;;;5066792;28;47184;-66
2023/05/20 08:32:56;;;;;;;16.13;11.77;;;16.60;47.90;;;;;;5065995;28;46314;-66
2023/05/20 08:35:22;;;;;;;17.90;11.30;;;17.10;46.60;;;;;;5065402;28;46456;-67
2023/05/20 08:37:48;;;;;;;17.43;12.20;;;17.30;45.50;;;;;;5064665;27;46604;-66
2023/05/20 08:40:14;;;;;;;16.90;11.50;;;17.40;45.30;;;;;;5068698;28;46524;-68
2023/05/20 08:42:43;;;;;;;17.50;12.53;;;17.40;44.00;;;;;;5068379;27;45885;-67
2023/05/20 08:45:14;;;;;;;17.13;11.13;;;17.20;44.50;;;;;;5070582;28;46493;-65
2023/05/20 08:47:44;;;;;;;19.30;11.90;;;16.90;44.90;;;;;;5068894;28;46654;-67
2023/05/20 08:50:12;;;;;;;18.60;12.70;;;16.70;44.60;;;;;;5069290;27;46113;-67
2023/05/20 08:52:47;;;;;;;20.60;11.27;;;16.50;45.20;;;;;;5069363;28;46443;-68
2023/05/20 08:55:25;;;;;;;20.67;12.30;;;16.70;44.60;;;;;;5065227;28;46415;-68
2023/05/20 08:57:54;;;;;;;18.67;11.33;;;16.90;44.90;;;;;;5067325;28;46484;-67
2023/05/20 09:00:25;;;;;;;15.03;10.80;;;17.70;43.80;;;;;;5066552;28;47244;-66
2023/05/20 09:02:52;;;;;;;18.23;11.10;;;18.30;41.60;;;;;;5065599;28;45947;-67
2023/05/20 09:05:18;;;;;;;20.53;10.87;;;18.40;39.50;;;;;;5067762;28;46438;-66
2023/05/20 09:07:44;;;;;;;16.20;11.20;;;18.40;39.60;;;;;;5066259;28;46378;-67
2023/05/20 09:10:10;;;;;;;16.17;11.77;;;18.70;39.70;;;;;;5067867;27;46431;-66
2023/05/20 09:12:37;;;;;;;18.20;11.53;;;18.90;38.40;;;;;;5064129;27;46321;-66
2023/05/20 09:15:03;;;;;;;15.90;11.33;;;19.00;38.40;;;;;;5065452;28;46318;-66
2023/05/20 09:17:29;;;;;;;17.73;10.93;;;19.00;37.50;;;;;;5068229;28;47189;-65
2023/05/20 09:19:55;;;;;;;15.10;11.00;;;18.90;38.60;;;;;;5066272;28;46821;-66
2023/05/20 09:22:30;;;;;;;20.23;11.70;;;18.80;38.20;;;;;;5067982;27;46386;-67
2023/05/20 09:24:56;;;;;;;15.90;10.83;;;18.80;38.30;;;;;;5068947;28;46458;-65
2023/05/20 09:27:22;;;;;;;18.40;11.67;;;18.70;38.70;;;;;;5068198;28;46478;-66
2023/05/20 09:29:49;;;;;;;21.13;10.20;;;18.60;38.90;;;;;;5067963;28;46539;-66
2023/05/20 09:32:15;;;;;;;15.40;10.47;;;18.80;38.70;;;;;;5067139;28;46432;-66
2023/05/20 09:34:41;;;;;;;15.37;10.20;;;19.20;37.70;;;;;;5064833;28;46447;-66
2023/05/20 09:37:08;;;;;;;14.03;10.20;;;19.80;36.90;;;;;;5067709;27;46397;-67
2023/05/20 09:39:47;;;;;;;12.33;9.93;;;20.00;34.40;;;;;;5062809;28;46473;-66
2023/05/20 09:42:20;;;;;;;13.00;9.90;;;19.90;33.90;;;;;;5069174;28;46404;-67
2023/05/20 09:44:48;;;;;;;15.80;10.30;;;19.80;33.80;;;;;;5064868;28;47928;-66
2023/05/20 09:47:15;;;;;;;14.57;10.43;;;19.90;33.90;;;;;;5066725;28;46541;-66
2023/05/20 09:49:42;;;;;;;16.50;10.50;;;20.00;33.90;;;;;;5065943;27;47414;-66
2023/05/20 09:52:09;;;;;;;13.23;10.50;;;20.30;33.10;;;;;;5069010;28;46375;-68
2023/05/20 09:54:35;;;;;;;12.70;9.87;;;20.30;31.80;;;;;;5065491;28;46865;-65
2023/05/20 09:57:03;;;;;;;14.70;10.90;;;20.30;32.40;;;;;;5068438;28;46612;-66
2023/05/20 09:59:31;;;;;;;13.67;9.80;;;20.10;32.50;;;;;;5066494;28;46519;-66
2023/05/20 10:01:57;;;;;;;13.10;9.60;;;20.10;32.50;;;;;;5068578;27;45851;-66
2023/05/20 10:04:24;;;;;;;12.20;9.73;;;20.40;32.20;;;;;;5067236;28;46435;-66
2023/05/20 10:07:10;;;;;;;12.23;9.90;;;20.80;31.50;;;;;;5067511;27;45928;-66
2023/05/20 10:10:08;;;;;;;12.67;9.87;;;20.80;30.00;;;;;;5067975;28;46483;-67
2023/05/20 10:12:55;;;;;;;14.30;9.23;;;20.60;30.00;;;;;;5038169;28;46543;-66
2023/05/20 10:15:46;;;;;;;13.17;9.63;;;20.20;31.10;;;;;;5063789;28;46426;-66
2023/05/20 10:18:40;;;;;;;12.53;8.10;;;20.20;31.40;;;;;;5065874;27;45906;-67
2023/05/20 10:21:15;;;;;;;12.17;7.53;;;20.30;31.40;;;;;;5066377;28;46690;-68
2023/05/20 10:23:41;;;;;;;11.77;7.60;;;20.50;31.10;;;;;;5063829;28;46575;-68
2023/05/20 10:26:07;;;;;;;10.10;7.90;;;20.70;30.90;;;;;;5066945;28;46404;-67
2023/05/20 10:28:37;;;;;;;9.43;7.20;;;20.90;29.50;;;;;;5063861;28;46400;-68
2023/05/20 10:31:15;;;;;;;9.73;6.77;;;20.90;28.40;;;;;;5069211;28;46979;-67
2023/05/20 10:33:42;;;;;;;16.13;7.63;;;21.20;28.20;;;;;;5065068;27;46504;-67
2023/05/20 10:36:08;;;;;;;10.60;7.20;;;21.70;27.50;;;;;;5065801;28;46541;-67
2023/05/20 10:38:34;;;;;;;12.07;7.60;;;22.00;26.90;;;;;;5065809;28;46629;-67
2023/05/20 10:41:10;;;;;;;13.10;8.77;;;22.10;25.90;;;;;;5066375;28;46380;-66
2023/05/20 10:43:36;;;;;;;13.40;7.87;;;22.10;26.10;;;;;;5065696;28;46467;-67
2023/05/20 10:46:01;;;;;;;11.43;7.60;;;21.80;24.90;;;;;;5068244;28;46424;-69
2023/05/20 10:48:31;;;;;;;12.90;8.80;;;21.70;25.70;;;;;;5066150;28;46444;-67
2023/05/20 10:51:02;;;;;;;13.60;8.87;;;21.80;26.00;;;;;;5067669;28;47080;-66
2023/05/20 10:53:37;;;;;;;16.80;7.40;;;21.60;26.30;;;;;;5067973;28;46278;-69
2023/05/20 10:56:02;;;;;;;10.77;7.63;;;21.50;25.80;;;;;;5066506;28;46334;-66
2023/05/20 10:58:36;;;;;;;11.37;7.80;;;21.80;25.80;;;;;;5064069;28;45978;-69
2023/05/20 11:01:02;;;;;;;12.10;7.93;;;21.80;25.70;;;;;;5067024;28;47157;-66
2023/05/20 11:03:28;;;;;;;15.17;8.83;;;21.80;26.20;;;;;;5066743;28;46354;-66
2023/05/20 11:05:54;;;;;;;12.43;8.53;;;21.80;25.90;;;;;;5065720;28;46461;-65
2023/05/20 11:08:20;;;;;;;12.30;8.50;;;21.90;26.10;;;;;;5062807;28;46487;-67
2023/05/20 11:10:46;;;;;;;12.73;9.37;;;21.80;26.00;;;;;;5062474;28;48138;-65
2023/05/20 11:13:14;;;;;;;12.83;8.27;;;21.80;26.10;;;;;;5067155;28;47553;-66
2023/05/20 11:15:40;;;;;;;10.33;7.10;;;21.60;26.40;;;;;;5064341;28;46401;-66
2023/05/20 11:18:05;;;;;;;10.37;6.80;;;21.70;25.70;;;;;;5065093;28;46615;-66
2023/05/20 11:20:34;;;;;;;13.50;7.37;;;21.60;25.70;;;;;;5065186;27;46675;-66
2023/05/20 11:23:01;;;;;;;10.63;6.60;;;21.70;25.40;;;;;;5063836;28;46161;-65
2023/05/20 11:25:27;;;;;;;10.03;6.80;;;21.80;25.30;;;;;;5062875;27;46376;-67
2023/05/20 11:27:53;;;;;;;13.63;7.17;;;21.80;24.90;;;;;;5065561;28;46609;-67
2023/05/20 11:30:19;;;;;;;10.87;6.83;;;21.70;24.30;;;;;;5068615;28;46488;-68
2023/05/20 11:33:03;;;;;;;9.63;5.83;;;21.80;23.80;;;;;;5066376;28;46306;-66
2023/05/20 11:35:31;;;;;;;9.57;5.77;;;22.10;23.90;;;;;;5061739;28;46493;-68
2023/05/20 11:38:05;;;;;;;9.37;6.57;;;22.40;24.10;;;;;;5066208;28;46843;-66
2023/05/20 11:40:32;;;;;;;13.20;6.73;;;22.80;23.80;;;;;;5063555;28;46313;-68
2023/05/20 11:43:02;;;;;;;8.93;6.67;;;22.90;23.50;;;;;;5062002;28;46450;-68
2023/05/20 11:45:43;;;;;;;9.97;6.40;;;23.20;23.00;;;;;;5064165;28;46472;-69
2023/05/20 11:48:10;;;;;;;12.43;6.70;;;23.00;22.50;;;;;;5064434;28;45810;-69
2023/05/20 11:50:41;;;;;;;8.40;6.43;;;23.10;22.40;;;;;;5069130;28;46390;-67
2023/05/20 11:53:14;;;;;;;9.53;6.30;;;23.20;22.10;;;;;;5067223;28;45843;-67
2023/05/20 11:55:54;;;;;;;15.27;6.60;;;23.10;21.90;;;;;;5070105;28;46365;-67
2023/05/20 11:58:30;;;;;;;9.63;6.90;;;22.90;22.10;;;;;;5073908;28;46408;-67
2023/05/20 12:00:56;;;;;;;9.40;7.13;;;23.00;22.20;;;;;;5068683;28;46365;-69
2023/05/20 12:03:22;;;;;;;8.90;6.57;;;22.70;22.70;;;;;;5067178;28;46490;-67
2023/05/20 12:05:49;;;;;;;9.60;6.10;;;22.70;23.10;;;;;;5068890;28;46360;-67
2023/05/20 12:08:15;;;;;;;11.77;7.00;;;22.70;23.60;;;;;;5064647;28;45909;-67
2023/05/20 12:10:40;;;;;;;9.27;6.03;;;22.80;23.60;;;;;;5068735;28;46323;-65
2023/05/20 12:13:07;;;;;;;9.20;5.90;;;22.70;23.80;;;;;;5068347;28;46372;-66
2023/05/20 12:15:36;;;;;;;8.23;5.80;;;22.70;23.70;;;;;;5067264;28;45834;-68
2023/05/20 12:18:02;;;;;;;9.03;5.50;;;22.90;23.40;;;;;;5066394;28;45936;-66
2023/05/20 12:20:29;;;;;;;9.23;5.43;;;22.90;22.80;;;;;;5064324;28;46669;-67
2023/05/20 12:22:55;;;;;;;9.10;5.23;;;22.80;22.40;;;;;;5065335;28;46607;-67
2023/05/20 12:25:21;;;;;;;6.60;5.10;;;22.80;22.50;;;;;;5065003;28;46612;-66
2023/05/20 12:27:47;;;;;;;11.07;5.13;;;22.80;22.60;;;;;;5067096;28;46577;-66
2023/05/20 12:30:18;;;;;;;6.83;4.20;;;22.90;22.90;;;;;;5067802;28;46558;-66
2023/05/20 12:32:45;;;;;;;5.40;3.80;;;23.10;21.40;;;;;;5068903;28;46398;-66
2023/05/20 12:35:11;;;;;;;9.20;3.97;;;23.10;20.60;;;;;;5069134;28;46350;-66